sensor_id;sensor_type;location;lat;lon;timestamp;pressure;altitude;pressure_sealevel;temperature
78917;BMP280;68315;48.608;11.436;2023-03-20T00:03:41;97401.16;;;7.06
78917;BMP280;68315;48.608;11.436;2023-03-20T00:06:20;97395.72;;;7.00
78917;BMP280;68315;48.608;11.436;2023-03-20T00:08:48;97404.16;;;6.91
78917;BMP280;68315;48.608;11.436;2023-03-20T00:13:55;97400.97;;;6.76
78917;BMP280;68315;48.608;11.436;2023-03-20T00:16:23;97405.16;;;6.72
78917;BMP280;68315;48.608;11.436;2023-03-20T00:18:48;97402.19;;;6.70
78917;BMP280;68315;48.608;11.436;2023-03-20T00:21:16;97402.72;;;6.74
78917;BMP280;68315;48.608;11.436;2023-03-20T00:23:42;97418.59;;;6.75
78917;BMP280;68315;48.608;11.436;2023-03-20T00:26:11;97406.41;;;6.82
78917;BMP280;68315;48.608;11.436;2023-03-20T00:28:42;97404.66;;;6.95
78917;BMP280;68315;48.608;11.436;2023-03-20T00:31:24;97409.63;;;6.97
78917;BMP280;68315;48.608;11.436;2023-03-20T00:33:51;97411.13;;;7.03
78917;BMP280;68315;48.608;11.436;2023-03-20T00:36:17;97410.38;;;7.03
78917;BMP280;68315;48.608;11.436;2023-03-20T00:38:42;97414.84;;;7.00
78917;BMP280;68315;48.608;11.436;2023-03-20T00:41:21;97410.88;;;6.96
78917;BMP280;68315;48.608;11.436;2023-03-20T00:43:50;97413.34;;;6.94
78917;BMP280;68315;48.608;11.436;2023-03-20T00:46:16;97405.44;;;6.90
78917;BMP280;68315;48.608;11.436;2023-03-20T00:48:42;97407.63;;;6.92
78917;BMP280;68315;48.608;11.436;2023-03-20T00:51:08;97406.19;;;7.02
78917;BMP280;68315;48.608;11.436;2023-03-20T00:53:34;97404.41;;;7.10
78917;BMP280;68315;48.608;11.436;2023-03-20T00:55:59;97411.31;;;7.17
78917;BMP280;68315;48.608;11.436;2023-03-20T00:58:25;97416.06;;;7.22
78917;BMP280;68315;48.608;11.436;2023-03-20T01:00:50;97405.63;;;7.26
78917;BMP280;68315;48.608;11.436;2023-03-20T01:03:20;97410.81;;;7.29
78917;BMP280;68315;48.608;11.436;2023-03-20T01:05:47;97412.31;;;7.36
78917;BMP280;68315;48.608;11.436;2023-03-20T01:08:22;97407.56;;;7.36
78917;BMP280;68315;48.608;11.436;2023-03-20T01:10:54;97403.09;;;7.33
78917;BMP280;68315;48.608;11.436;2023-03-20T01:13:25;97405.13;;;7.33
78917;BMP280;68315;48.608;11.436;2023-03-20T01:15:52;97401.38;;;7.36
78917;BMP280;68315;48.608;11.436;2023-03-20T01:18:19;97404.09;;;7.41
78917;BMP280;68315;48.608;11.436;2023-03-20T01:20:45;97410.53;;;7.49
78917;BMP280;68315;48.608;11.436;2023-03-20T01:23:10;97410.00;;;7.51
78917;BMP280;68315;48.608;11.436;2023-03-20T01:25:36;97403.34;;;7.46
78917;BMP280;68315;48.608;11.436;2023-03-20T01:28:11;97412.28;;;7.41
78917;BMP280;68315;48.608;11.436;2023-03-20T01:30:37;97409.78;;;7.43
78917;BMP280;68315;48.608;11.436;2023-03-20T01:33:11;97405.06;;;7.49
78917;BMP280;68315;48.608;11.436;2023-03-20T01:35:38;97413.00;;;7.58
78917;BMP280;68315;48.608;11.436;2023-03-20T01:38:10;97403.50;;;7.70
78917;BMP280;68315;48.608;11.436;2023-03-20T01:40:42;97412.16;;;7.80
78917;BMP280;68315;48.608;11.436;2023-03-20T01:43:14;97406.13;;;7.93
78917;BMP280;68315;48.608;11.436;2023-03-20T01:45:51;97410.56;;;8.01
78917;BMP280;68315;48.608;11.436;2023-03-20T01:48:19;97411.53;;;8.04
78917;BMP280;68315;48.608;11.436;2023-03-20T01:50:44;97409.03;;;8.06
78917;BMP280;68315;48.608;11.436;2023-03-20T01:53:22;97398.88;;;8.01
78917;BMP280;68315;48.608;11.436;2023-03-20T01:55:50;97401.84;;;8.03
78917;BMP280;68315;48.608;11.436;2023-03-20T01:58:23;97403.31;;;8.04
78917;BMP280;68315;48.608;11.436;2023-03-20T02:00:50;97401.34;;;8.04
78917;BMP280;68315;48.608;11.436;2023-03-20T02:03:16;97405.81;;;8.02
78917;BMP280;68315;48.608;11.436;2023-03-20T02:05:42;97408.56;;;8.02
78917;BMP280;68315;48.608;11.436;2023-03-20T02:08:31;97395.63;;;8.02
78917;BMP280;68315;48.608;11.436;2023-03-20T02:11:01;97388.63;;;8.07
78917;BMP280;68315;48.608;11.436;2023-03-20T02:13:29;97393.84;;;8.10
78917;BMP280;68315;48.608;11.436;2023-03-20T02:16:02;97400.25;;;8.18
78917;BMP280;68315;48.608;11.436;2023-03-20T02:18:29;97397.50;;;8.18
78917;BMP280;68315;48.608;11.436;2023-03-20T02:31:58;97407.19;;;8.25
78917;BMP280;68315;48.608;11.436;2023-03-20T02:43:27;97408.66;;;8.31
78917;BMP280;68315;48.608;11.436;2023-03-20T02:45:59;97417.09;;;8.33
78917;BMP280;68315;48.608;11.436;2023-03-20T02:48:32;97415.84;;;8.34
78917;BMP280;68315;48.608;11.436;2023-03-20T02:51:04;97414.06;;;8.37
78917;BMP280;68315;48.608;11.436;2023-03-20T02:54:06;97415.53;;;8.38
78917;BMP280;68315;48.608;11.436;2023-03-20T02:56:58;97415.50;;;8.43
78917;BMP280;68315;48.608;11.436;2023-03-20T02:59:55;97420.22;;;8.48
78917;BMP280;68315;48.608;11.436;2023-03-20T03:02:35;97425.97;;;8.45
78917;BMP280;68315;48.608;11.436;2023-03-20T03:05:05;97422.00;;;8.40
78917;BMP280;68315;48.608;11.436;2023-03-20T03:07:35;97426.06;;;8.34
78917;BMP280;68315;48.608;11.436;2023-03-20T03:10:06;97431.03;;;8.30
78917;BMP280;68315;48.608;11.436;2023-03-20T03:12:39;97424.31;;;8.31
78917;BMP280;68315;48.608;11.436;2023-03-20T03:15:14;97437.50;;;8.32
78917;BMP280;68315;48.608;11.436;2023-03-20T03:17:43;97435.03;;;8.34
78917;BMP280;68315;48.608;11.436;2023-03-20T03:20:28;97428.03;;;8.33
78917;BMP280;68315;48.608;11.436;2023-03-20T03:22:56;97427.81;;;8.31
78917;BMP280;68315;48.608;11.436;2023-03-20T03:25:25;97439.75;;;8.28
78917;BMP280;68315;48.608;11.436;2023-03-20T03:30:46;97437.06;;;8.23
78917;BMP280;68315;48.608;11.436;2023-03-20T03:33:21;97435.34;;;8.20
78917;BMP280;68315;48.608;11.436;2023-03-20T03:35:47;97437.31;;;8.19
78917;BMP280;68315;48.608;11.436;2023-03-20T03:43:40;97449.22;;;8.27
78917;BMP280;68315;48.608;11.436;2023-03-20T03:46:19;97445.72;;;8.27
78917;BMP280;68315;48.608;11.436;2023-03-20T03:48:50;97447.22;;;8.28
78917;BMP280;68315;48.608;11.436;2023-03-20T03:51:20;97454.94;;;8.29
78917;BMP280;68315;48.608;11.436;2023-03-20T03:54:08;97447.69;;;8.32
78917;BMP280;68315;48.608;11.436;2023-03-20T03:56:37;97452.69;;;8.33
78917;BMP280;68315;48.608;11.436;2023-03-20T03:59:09;97448.44;;;8.32
78917;BMP280;68315;48.608;11.436;2023-03-20T04:01:35;97457.41;;;8.33
78917;BMP280;68315;48.608;11.436;2023-03-20T04:04:06;97459.41;;;8.32
78917;BMP280;68315;48.608;11.436;2023-03-20T04:06:32;97456.44;;;8.30
78917;BMP280;68315;48.608;11.436;2023-03-20T04:08:58;97456.44;;;8.30
78917;BMP280;68315;48.608;11.436;2023-03-20T04:11:24;97457.66;;;8.29
78917;BMP280;68315;48.608;11.436;2023-03-20T04:13:51;97463.13;;;8.29
78917;BMP280;68315;48.608;11.436;2023-03-20T04:16:18;97466.84;;;8.32
78917;BMP280;68315;48.608;11.436;2023-03-20T04:18:44;97463.63;;;8.33
78917;BMP280;68315;48.608;11.436;2023-03-20T04:21:09;97470.63;;;8.34
78917;BMP280;68315;48.608;11.436;2023-03-20T04:23:35;97471.09;;;8.33
78917;BMP280;68315;48.608;11.436;2023-03-20T04:26:00;97473.09;;;8.32
78917;BMP280;68315;48.608;11.436;2023-03-20T04:28:26;97470.34;;;8.32
78917;BMP280;68315;48.608;11.436;2023-03-20T04:30:56;97473.09;;;8.32
78917;BMP280;68315;48.608;11.436;2023-03-20T04:33:23;97484.03;;;8.32
78917;BMP280;68315;48.608;11.436;2023-03-20T04:35:48;97477.56;;;8.30
78917;BMP280;68315;48.608;11.436;2023-03-20T04:38:15;97485.31;;;8.31
78917;BMP280;68315;48.608;11.436;2023-03-20T04:40:40;97477.56;;;8.30
78917;BMP280;68315;48.608;11.436;2023-03-20T04:43:05;97477.09;;;8.31
78917;BMP280;68315;48.608;11.436;2023-03-20T04:45:31;97473.84;;;8.33
78917;BMP280;68315;48.608;11.436;2023-03-20T04:47:56;97476.53;;;8.38
78917;BMP280;68315;48.608;11.436;2023-03-20T04:50:21;97479.25;;;8.38
78917;BMP280;68315;48.608;11.436;2023-03-20T04:52:47;97470.63;;;8.34
78917;BMP280;68315;48.608;11.436;2023-03-20T04:55:12;97482.28;;;8.35
78917;BMP280;68315;48.608;11.436;2023-03-20T04:57:37;97484.78;;;8.33
78917;BMP280;68315;48.608;11.436;2023-03-20T05:00:03;97482.03;;;8.33
78917;BMP280;68315;48.608;11.436;2023-03-20T05:02:29;97485.31;;;8.31
78917;BMP280;68315;48.608;11.436;2023-03-20T05:04:54;97488.03;;;8.31
78917;BMP280;68315;48.608;11.436;2023-03-20T05:07:20;97483.03;;;8.30
78917;BMP280;68315;48.608;11.436;2023-03-20T05:09:45;97487.53;;;8.27
78917;BMP280;68315;48.608;11.436;2023-03-20T05:12:11;97486.03;;;8.26
78917;BMP280;68315;48.608;11.436;2023-03-20T05:14:36;97502.22;;;8.30
78917;BMP280;68315;48.608;11.436;2023-03-20T05:17:01;97500.47;;;8.32
78917;BMP280;68315;48.608;11.436;2023-03-20T05:19:26;97506.22;;;8.29
78917;BMP280;68315;48.608;11.436;2023-03-20T05:21:52;97497.75;;;8.27
78917;BMP280;68315;48.608;11.436;2023-03-20T05:24:17;97497.75;;;8.27
78917;BMP280;68315;48.608;11.436;2023-03-20T05:26:42;97503.50;;;8.23
78917;BMP280;68315;48.608;11.436;2023-03-20T05:29:08;97507.50;;;8.22
78917;BMP280;68315;48.608;11.436;2023-03-20T05:31:33;97514.19;;;8.21
78917;BMP280;68315;48.608;11.436;2023-03-20T05:33:58;97515.19;;;8.24
78917;BMP280;68315;48.608;11.436;2023-03-20T05:36:23;97516.47;;;8.23
78917;BMP280;68315;48.608;11.436;2023-03-20T05:38:49;97518.69;;;8.24
78917;BMP280;68315;48.608;11.436;2023-03-20T05:41:14;97515.94;;;8.24
78917;BMP280;68315;48.608;11.436;2023-03-20T05:43:39;97516.91;;;8.27
78917;BMP280;68315;48.608;11.436;2023-03-20T05:46:05;97519.44;;;8.25
78917;BMP280;68315;48.608;11.436;2023-03-20T05:48:30;97518.88;;;8.26
78917;BMP280;68315;48.608;11.436;2023-03-20T05:50:55;97524.38;;;8.26
78917;BMP280;68315;48.608;11.436;2023-03-20T05:53:21;97528.13;;;8.29
78917;BMP280;68315;48.608;11.436;2023-03-20T05:55:46;97522.63;;;8.29
78917;BMP280;68315;48.608;11.436;2023-03-20T05:58:11;97531.34;;;8.27
78917;BMP280;68315;48.608;11.436;2023-03-20T06:00:38;97533.59;;;8.34
78917;BMP280;68315;48.608;11.436;2023-03-20T06:03:03;97532.84;;;8.34
78917;BMP280;68315;48.608;11.436;2023-03-20T06:05:31;97540.25;;;8.39
78917;BMP280;68315;48.608;11.436;2023-03-20T06:07:56;97543.00;;;8.39
78917;BMP280;68315;48.608;11.436;2023-03-20T06:10:21;97547.47;;;8.36
78917;BMP280;68315;48.608;11.436;2023-03-20T06:12:47;97546.22;;;8.37
78917;BMP280;68315;48.608;11.436;2023-03-20T06:15:12;97550.44;;;8.38
78917;BMP280;68315;48.608;11.436;2023-03-20T06:17:37;97544.97;;;8.44
78917;BMP280;68315;48.608;11.436;2023-03-20T06:20:03;97544.16;;;8.49
78917;BMP280;68315;48.608;11.436;2023-03-20T06:22:28;97551.38;;;8.52
78917;BMP280;68315;48.608;11.436;2023-03-20T06:24:53;97542.91;;;8.55
78917;BMP280;68315;48.608;11.436;2023-03-20T06:27:21;97546.06;;;8.71
78917;BMP280;68315;48.608;11.436;2023-03-20T06:29:46;97547.06;;;8.73
78917;BMP280;68315;48.608;11.436;2023-03-20T06:32:11;97552.25;;;8.77
78917;BMP280;68315;48.608;11.436;2023-03-20T06:34:39;97551.22;;;8.80
78917;BMP280;68315;48.608;11.436;2023-03-20T06:37:05;97543.75;;;8.80
78917;BMP280;68315;48.608;11.436;2023-03-20T06:39:30;97557.31;;;8.97
78917;BMP280;68315;48.608;11.436;2023-03-20T06:41:55;97562.94;;;9.15
78917;BMP280;68315;48.608;11.436;2023-03-20T06:44:21;97553.84;;;9.31
78917;BMP280;68315;48.608;11.436;2023-03-20T06:46:46;97554.16;;;9.52
78917;BMP280;68315;48.608;11.436;2023-03-20T06:49:11;97560.44;;;9.71
78917;BMP280;68315;48.608;11.436;2023-03-20T06:51:37;97549.97;;;9.70
78917;BMP280;68315;48.608;11.436;2023-03-20T06:54:03;97559.13;;;9.78
78917;BMP280;68315;48.608;11.436;2023-03-20T06:56:28;97562.84;;;9.80
78917;BMP280;68315;48.608;11.436;2023-03-20T06:58:53;97561.66;;;9.76
78917;BMP280;68315;48.608;11.436;2023-03-20T07:01:19;97580.13;;;9.75
78917;BMP280;68315;48.608;11.436;2023-03-20T07:03:45;97574.72;;;9.64
78917;BMP280;68315;48.608;11.436;2023-03-20T07:06:10;97574.78;;;9.59
78917;BMP280;68315;48.608;11.436;2023-03-20T07:08:36;97581.97;;;9.62
78917;BMP280;68315;48.608;11.436;2023-03-20T07:11:02;97584.22;;;9.63
78917;BMP280;68315;48.608;11.436;2023-03-20T07:13:28;97580.50;;;9.61
78917;BMP280;68315;48.608;11.436;2023-03-20T07:15:54;97596.44;;;9.62
78917;BMP280;68315;48.608;11.436;2023-03-20T07:18:19;97596.63;;;9.70
78917;BMP280;68315;48.608;11.436;2023-03-20T07:20:45;97595.09;;;9.74
78917;BMP280;68315;48.608;11.436;2023-03-20T07:23:10;97589.31;;;9.78
78917;BMP280;68315;48.608;11.436;2023-03-20T07:25:36;97589.09;;;9.76
78917;BMP280;68315;48.608;11.436;2023-03-20T07:28:01;97591.84;;;9.76
78917;BMP280;68315;48.608;11.436;2023-03-20T07:30:26;97592.28;;;9.80
78917;BMP280;68315;48.608;11.436;2023-03-20T07:32:51;97591.06;;;9.81
78917;BMP280;68315;48.608;11.436;2023-03-20T07:35:17;97587.28;;;9.78
78917;BMP280;68315;48.608;11.436;2023-03-20T07:37:42;97596.94;;;9.90
78917;BMP280;68315;48.608;11.436;2023-03-20T07:40:08;97591.25;;;10.07
78917;BMP280;68315;48.608;11.436;2023-03-20T07:42:33;97594.81;;;10.02
78917;BMP280;68315;48.608;11.436;2023-03-20T07:44:59;97597.16;;;9.92
78917;BMP280;68315;48.608;11.436;2023-03-20T07:47:24;97610.59;;;9.96
78917;BMP280;68315;48.608;11.436;2023-03-20T07:49:49;97604.16;;;9.93
78917;BMP280;68315;48.608;11.436;2023-03-20T07:52:14;97604.34;;;9.95
78917;BMP280;68315;48.608;11.436;2023-03-20T07:54:41;97602.34;;;9.96
78917;BMP280;68315;48.608;11.436;2023-03-20T07:57:06;97596.38;;;9.97
78917;BMP280;68315;48.608;11.436;2023-03-20T07:59:31;97603.97;;;10.10
78917;BMP280;68315;48.608;11.436;2023-03-20T08:01:57;97596.09;;;10.20
78917;BMP280;68315;48.608;11.436;2023-03-20T08:04:22;97599.81;;;10.22
78917;BMP280;68315;48.608;11.436;2023-03-20T08:06:48;97598.81;;;10.25
78917;BMP280;68315;48.608;11.436;2023-03-20T08:09:14;97588.56;;;10.26
78917;BMP280;68315;48.608;11.436;2023-03-20T08:11:39;97579.81;;;10.27
78917;BMP280;68315;48.608;11.436;2023-03-20T08:14:04;97577.41;;;10.37
78917;BMP280;68315;48.608;11.436;2023-03-20T08:16:30;97584.47;;;10.69
78917;BMP280;68315;48.608;11.436;2023-03-20T08:18:55;97581.94;;;10.90
78917;BMP280;68315;48.608;11.436;2023-03-20T08:21:26;97582.16;;;11.24
78917;BMP280;68315;48.608;11.436;2023-03-20T08:23:52;97584.25;;;11.18
78917;BMP280;68315;48.608;11.436;2023-03-20T08:26:17;97593.47;;;11.20
78917;BMP280;68315;48.608;11.436;2023-03-20T08:28:42;97580.25;;;11.19
78917;BMP280;68315;48.608;11.436;2023-03-20T08:31:08;97583.13;;;11.26
78917;BMP280;68315;48.608;11.436;2023-03-20T08:33:33;97581.88;;;11.40
78917;BMP280;68315;48.608;11.436;2023-03-20T08:35:59;97577.22;;;11.48
78917;BMP280;68315;48.608;11.436;2023-03-20T08:38:24;97575.78;;;11.60
78917;BMP280;68315;48.608;11.436;2023-03-20T08:40:50;97568.38;;;11.82
78917;BMP280;68315;48.608;11.436;2023-03-20T08:43:15;97570.41;;;11.94
78917;BMP280;68315;48.608;11.436;2023-03-20T08:45:41;97583.41;;;12.20
78917;BMP280;68315;48.608;11.436;2023-03-20T08:48:06;97583.22;;;12.51
78917;BMP280;68315;48.608;11.436;2023-03-20T08:50:31;97581.28;;;12.93
78917;BMP280;68315;48.608;11.436;2023-03-20T08:52:57;97587.28;;;12.71
78917;BMP280;68315;48.608;11.436;2023-03-20T08:55:22;97588.16;;;12.66
78917;BMP280;68315;48.608;11.436;2023-03-20T08:57:47;97588.63;;;12.57
78917;BMP280;68315;48.608;11.436;2023-03-20T09:00:14;97590.13;;;12.99
78917;BMP280;68315;48.608;11.436;2023-03-20T09:02:41;97587.31;;;13.12
78917;BMP280;68315;48.608;11.436;2023-03-20T09:05:06;97591.19;;;13.58
78917;BMP280;68315;48.608;11.436;2023-03-20T09:07:32;97597.06;;;13.83
78917;BMP280;68315;48.608;11.436;2023-03-20T09:09:57;97594.78;;;14.02
78917;BMP280;68315;48.608;11.436;2023-03-20T09:12:22;97592.88;;;13.61
78917;BMP280;68315;48.608;11.436;2023-03-20T09:14:48;97596.75;;;13.37
78917;BMP280;68315;48.608;11.436;2023-03-20T09:17:13;97598.03;;;13.36
78917;BMP280;68315;48.608;11.436;2023-03-20T09:19:38;97598.44;;;13.40
78917;BMP280;68315;48.608;11.436;2023-03-20T09:22:06;97586.84;;;13.70
78917;BMP280;68315;48.608;11.436;2023-03-20T09:24:32;97588.84;;;13.41
78917;BMP280;68315;48.608;11.436;2023-03-20T09:26:58;97594.25;;;13.26
78917;BMP280;68315;48.608;11.436;2023-03-20T09:29:25;97592.41;;;13.21
78917;BMP280;68315;48.608;11.436;2023-03-20T09:31:51;97590.13;;;12.99
78917;BMP280;68315;48.608;11.436;2023-03-20T09:34:17;97589.44;;;12.86
78917;BMP280;68315;48.608;11.436;2023-03-20T09:36:42;97591.97;;;12.76
78917;BMP280;68315;48.608;11.436;2023-03-20T09:39:07;97599.19;;;12.66
78917;BMP280;68315;48.608;11.436;2023-03-20T09:41:33;97591.78;;;12.61
78917;BMP280;68315;48.608;11.436;2023-03-20T09:49:47;97591.00;;;12.74
78917;BMP280;68315;48.608;11.436;2023-03-20T09:52:27;97592.44;;;12.88
78917;BMP280;68315;48.608;11.436;2023-03-20T09:54:58;97591.56;;;12.93
78917;BMP280;68315;48.608;11.436;2023-03-20T09:57:27;97590.63;;;13.31
78917;BMP280;68315;48.608;11.436;2023-03-20T10:00:00;97585.94;;;13.75
78917;BMP280;68315;48.608;11.436;2023-03-20T10:02:38;97583.31;;;13.98
78917;BMP280;68315;48.608;11.436;2023-03-20T10:05:32;97581.22;;;14.19
78917;BMP280;68315;48.608;11.436;2023-03-20T10:08:01;97583.91;;;14.39
78917;BMP280;68315;48.608;11.436;2023-03-20T10:10:41;97566.56;;;14.54
78917;BMP280;68315;48.608;11.436;2023-03-20T10:18:34;97575.59;;;14.47
78917;BMP280;68315;48.608;11.436;2023-03-20T10:21:26;97558.66;;;14.51
78917;BMP280;68315;48.608;11.436;2023-03-20T10:23:59;97579.50;;;14.52
78917;BMP280;68315;48.608;11.436;2023-03-20T10:26:27;97571.00;;;14.50
78917;BMP280;68315;48.608;11.436;2023-03-20T10:28:57;97571.41;;;14.69
78917;BMP280;68315;48.608;11.436;2023-03-20T10:34:30;97566.09;;;15.23
78917;BMP280;68315;48.608;11.436;2023-03-20T10:42:29;97557.16;;;15.70
78917;BMP280;68315;48.608;11.436;2023-03-20T10:45:03;97551.16;;;15.26
78917;BMP280;68315;48.608;11.436;2023-03-20T10:47:34;97554.28;;;15.23
78917;BMP280;68315;48.608;11.436;2023-03-20T10:50:09;97543.59;;;15.19
78917;BMP280;68315;48.608;11.436;2023-03-20T10:52:40;97551.50;;;14.70
78917;BMP280;68315;48.608;11.436;2023-03-20T10:55:10;97558.25;;;14.39
78917;BMP280;68315;48.608;11.436;2023-03-20T10:57:39;97547.88;;;14.17
78917;BMP280;68315;48.608;11.436;2023-03-20T11:00:13;97547.59;;;14.00
78917;BMP280;68315;48.608;11.436;2023-03-20T11:02:43;97548.66;;;13.89
78917;BMP280;68315;48.608;11.436;2023-03-20T11:05:22;97544.81;;;13.64
78917;BMP280;68315;48.608;11.436;2023-03-20T11:07:51;97546.28;;;13.58
78917;BMP280;68315;48.608;11.436;2023-03-20T11:10:25;97542.00;;;13.57
78917;BMP280;68315;48.608;11.436;2023-03-20T11:12:51;97537.13;;;13.70
78917;BMP280;68315;48.608;11.436;2023-03-20T11:15:26;97544.66;;;13.70
78917;BMP280;68315;48.608;11.436;2023-03-20T11:20:21;97539.09;;;13.62
78917;BMP280;68315;48.608;11.436;2023-03-20T11:22:47;97538.03;;;13.65
78917;BMP280;68315;48.608;11.436;2023-03-20T11:25:23;97539.09;;;14.33
78917;BMP280;68315;48.608;11.436;2023-03-20T11:27:49;97527.00;;;14.97
78917;BMP280;68315;48.608;11.436;2023-03-20T11:30:15;97516.81;;;15.29
78917;BMP280;68315;48.608;11.436;2023-03-20T11:32:47;97524.59;;;15.08
78917;BMP280;68315;48.608;11.436;2023-03-20T11:35:29;97529.75;;;14.74
78917;BMP280;68315;48.608;11.436;2023-03-20T11:38:08;97536.16;;;14.54
78917;BMP280;68315;48.608;11.436;2023-03-20T11:40:35;97532.31;;;14.57
78917;BMP280;68315;48.608;11.436;2023-03-20T11:45:27;97533.94;;;14.53
78917;BMP280;68315;48.608;11.436;2023-03-20T11:47:59;97529.34;;;14.55
78917;BMP280;68315;48.608;11.436;2023-03-20T11:50:41;97528.41;;;14.53
78917;BMP280;68315;48.608;11.436;2023-03-20T11:53:29;97540.38;;;14.48
78917;BMP280;68315;48.608;11.436;2023-03-20T11:56:01;97533.34;;;14.31
78917;BMP280;68315;48.608;11.436;2023-03-20T11:58:27;97532.38;;;14.14
78917;BMP280;68315;48.608;11.436;2023-03-20T12:00:54;97527.69;;;14.01
78917;BMP280;68315;48.608;11.436;2023-03-20T12:03:39;97523.84;;;13.97
78917;BMP280;68315;48.608;11.436;2023-03-20T12:06:08;97526.38;;;13.95
78917;BMP280;68315;48.608;11.436;2023-03-20T12:08:38;97528.44;;;14.02
78917;BMP280;68315;48.608;11.436;2023-03-20T12:13:45;97531.06;;;14.15
78917;BMP280;68315;48.608;11.436;2023-03-20T12:16:17;97523.75;;;14.25
78917;BMP280;68315;48.608;11.436;2023-03-20T12:18:50;97519.91;;;14.28
78917;BMP280;68315;48.608;11.436;2023-03-20T12:21:33;97521.56;;;14.31
78917;BMP280;68315;48.608;11.436;2023-03-20T12:24:07;97515.50;;;14.40
78917;BMP280;68315;48.608;11.436;2023-03-20T12:29:35;97514.19;;;14.41
78917;BMP280;68315;48.608;11.436;2023-03-20T12:32:04;97512.91;;;14.42
78917;BMP280;68315;48.608;11.436;2023-03-20T12:34:42;97506.81;;;14.43
78917;BMP280;68315;48.608;11.436;2023-03-20T12:37:10;97511.25;;;14.39
78917;BMP280;68315;48.608;11.436;2023-03-20T12:40:15;97509.03;;;14.37
78917;BMP280;68315;48.608;11.436;2023-03-20T12:43:09;97505.31;;;14.35
78917;BMP280;68315;48.608;11.436;2023-03-20T12:45:39;97506.97;;;14.23
78917;BMP280;68315;48.608;11.436;2023-03-20T12:48:35;97512.31;;;14.21
78917;BMP280;68315;48.608;11.436;2023-03-20T12:51:07;97506.75;;;14.13
78917;BMP280;68315;48.608;11.436;2023-03-20T12:53:54;97509.19;;;14.24
78917;BMP280;68315;48.608;11.436;2023-03-20T12:56:30;97504.41;;;14.25
78917;BMP280;68315;48.608;11.436;2023-03-20T13:01:52;97506.59;;;14.26
78917;BMP280;68315;48.608;11.436;2023-03-20T13:18:22;97482.47;;;14.19
78917;BMP280;68315;48.608;11.436;2023-03-20T13:20:52;97485.97;;;14.20
78917;BMP280;68315;48.608;11.436;2023-03-20T13:33:46;97477.94;;;13.94
78917;BMP280;68315;48.608;11.436;2023-03-20T13:39:05;97480.72;;;13.86
78917;BMP280;68315;48.608;11.436;2023-03-20T13:41:35;97480.25;;;13.75
78917;BMP280;68315;48.608;11.436;2023-03-20T13:44:02;97472.38;;;13.79
78917;BMP280;68315;48.608;11.436;2023-03-20T13:46:44;97465.75;;;13.82
78917;BMP280;68315;48.608;11.436;2023-03-20T13:49:38;97455.59;;;13.77
78917;BMP280;68315;48.608;11.436;2023-03-20T13:52:15;97466.31;;;13.80
78917;BMP280;68315;48.608;11.436;2023-03-20T13:54:55;97457.28;;;13.80
78917;BMP280;68315;48.608;11.436;2023-03-20T13:59:57;97454.69;;;13.82
78917;BMP280;68315;48.608;11.436;2023-03-20T14:02:44;97458.97;;;13.90
78917;BMP280;68315;48.608;11.436;2023-03-20T14:05:18;97451.06;;;13.94
78917;BMP280;68315;48.608;11.436;2023-03-20T14:07:46;97460.81;;;13.95
78917;BMP280;68315;48.608;11.436;2023-03-20T14:12:55;97453.84;;;14.02
78917;BMP280;68315;48.608;11.436;2023-03-20T14:15:21;97454.28;;;14.28
78917;BMP280;68315;48.608;11.436;2023-03-20T14:17:50;97462.59;;;14.43
78917;BMP280;68315;48.608;11.436;2023-03-20T14:22:51;97469.06;;;14.46
78917;BMP280;68315;48.608;11.436;2023-03-20T14:25:18;97460.34;;;14.27
78917;BMP280;68315;48.608;11.436;2023-03-20T14:27:59;97460.88;;;14.03
78917;BMP280;68315;48.608;11.436;2023-03-20T14:33:05;97460.31;;;14.04
78917;BMP280;68315;48.608;11.436;2023-03-20T14:36:11;97459.16;;;13.92
78917;BMP280;68315;48.608;11.436;2023-03-20T14:41:30;97464.97;;;14.47
78917;BMP280;68315;48.608;11.436;2023-03-20T14:44:14;97461.66;;;14.71
78917;BMP280;68315;48.608;11.436;2023-03-20T14:47:01;97466.06;;;15.12
78917;BMP280;68315;48.608;11.436;2023-03-20T14:52:08;97453.56;;;15.66
78917;BMP280;68315;48.608;11.436;2023-03-20T14:54:39;97453.06;;;15.52
78917;BMP280;68315;48.608;11.436;2023-03-20T14:57:25;97440.59;;;15.13
78917;BMP280;68315;48.608;11.436;2023-03-20T14:59:53;97445.28;;;14.81
78917;BMP280;68315;48.608;11.436;2023-03-20T15:02:24;97447.44;;;14.37
78917;BMP280;68315;48.608;11.436;2023-03-20T15:04:50;97439.16;;;14.14
78917;BMP280;68315;48.608;11.436;2023-03-20T15:07:21;97443.72;;;13.97
78917;BMP280;68315;48.608;11.436;2023-03-20T15:09:51;97446.22;;;13.87
78917;BMP280;68315;48.608;11.436;2023-03-20T15:12:24;97440.19;;;13.96
78917;BMP280;68315;48.608;11.436;2023-03-20T15:14:54;97446.47;;;13.97
78917;BMP280;68315;48.608;11.436;2023-03-20T15:17:34;97434.88;;;13.98
78917;BMP280;68315;48.608;11.436;2023-03-20T15:20:05;97429.91;;;13.97
78917;BMP280;68315;48.608;11.436;2023-03-20T15:22:31;97427.63;;;13.88
78917;BMP280;68315;48.608;11.436;2023-03-20T15:24:56;97430.94;;;13.79
78917;BMP280;68315;48.608;11.436;2023-03-20T15:27:24;97417.09;;;13.71
78917;BMP280;68315;48.608;11.436;2023-03-20T15:29:53;97417.09;;;13.71
78917;BMP280;68315;48.608;11.436;2023-03-20T15:32:19;97421.72;;;13.84
78917;BMP280;68315;48.608;11.436;2023-03-20T15:34:46;97411.47;;;14.07
78917;BMP280;68315;48.608;11.436;2023-03-20T15:37:15;97410.56;;;14.12
78917;BMP280;68315;48.608;11.436;2023-03-20T15:39:46;97417.94;;;14.09
78917;BMP280;68315;48.608;11.436;2023-03-20T15:42:14;97416.59;;;13.95
78917;BMP280;68315;48.608;11.436;2023-03-20T15:44:43;97418.41;;;13.78
78917;BMP280;68315;48.608;11.436;2023-03-20T15:49:34;97404.91;;;13.67
78917;BMP280;68315;48.608;11.436;2023-03-20T15:52:03;97406.25;;;13.73
78917;BMP280;68315;48.608;11.436;2023-03-20T15:54:29;97403.66;;;13.68
78917;BMP280;68315;48.608;11.436;2023-03-20T15:56:56;97403.97;;;13.64
78917;BMP280;68315;48.608;11.436;2023-03-20T15:59:27;97411.66;;;13.50
78917;BMP280;68315;48.608;11.436;2023-03-20T16:01:58;97413.84;;;13.44
78917;BMP280;68315;48.608;11.436;2023-03-20T16:04:25;97412.56;;;13.45
78917;BMP280;68315;48.608;11.436;2023-03-20T16:06:56;97415.69;;;13.42
78917;BMP280;68315;48.608;11.436;2023-03-20T16:09:22;97416.06;;;13.46